createdAt,value
2018-09-03T03:42:34.215Z,25.55
2018-09-03T03:45:08.256Z,25.45
2018-09-03T03:47:37.778Z,24.30
2018-09-03T03:50:10.028Z,25.80
2018-09-03T03:52:39.014Z,24.53
2018-09-03T03:55:10.211Z,24.32
2018-09-03T03:57:39.192Z,22.73
2018-09-03T04:00:17.672Z,23.92
2018-09-03T04:02:46.607Z,23.55
2018-09-03T04:05:15.282Z,24.47
2018-09-03T04:07:47.114Z,25.82
2018-09-03T04:10:17.101Z,25.60
2018-09-03T04:12:51.458Z,25.57
2018-09-03T04:15:20.327Z,24.92
2018-09-03T04:17:55.053Z,27.67
2018-09-03T04:20:24.820Z,26.05
2018-09-03T04:22:55.333Z,25.15
2018-09-03T04:25:24.610Z,27.00
2018-09-03T04:27:53.715Z,25.90
2018-09-03T04:30:22.681Z,27.52
2018-09-03T04:32:51.482Z,26.53
2018-09-03T04:35:20.172Z,27.48
2018-09-03T04:37:48.971Z,28.83
2018-09-03T04:40:18.386Z,28.57
2018-09-03T04:42:51.153Z,28.20
2018-09-03T04:45:25.221Z,29.37
2018-09-03T04:47:56.031Z,28.37
2018-09-03T04:51:54.545Z,28.57
2018-09-03T04:54:25.462Z,31.10
2018-09-03T04:56:56.341Z,31.10
2018-09-03T04:59:25.290Z,30.52
2018-09-03T05:01:57.388Z,32.83
2018-09-03T05:04:26.372Z,31.85
2018-09-03T05:06:57.610Z,35.48
2018-09-03T05:09:27.271Z,31.20
2018-09-03T05:11:56.073Z,28.57
2018-09-03T05:14:24.735Z,29.27
2018-09-03T05:16:53.470Z,29.00
2018-09-03T05:19:22.786Z,29.15
2018-09-03T05:21:57.083Z,28.45
2018-09-03T05:24:25.787Z,29.15
2018-09-03T05:26:58.289Z,29.12
2018-09-03T05:29:32.247Z,33.45
2018-09-03T05:32:01.155Z,33.20
2018-09-03T05:34:29.995Z,31.52
2018-09-03T05:37:03.494Z,29.40
2018-09-03T05:39:32.452Z,31.77
2018-09-03T05:42:06.096Z,33.23
2018-09-03T05:44:35.845Z,33.87
2018-09-03T05:47:08.491Z,34.58
2018-09-03T05:49:39.470Z,35.92
2018-09-03T05:52:10.476Z,35.83
2018-09-03T05:54:43.182Z,38.95
2018-09-03T05:57:12.090Z,36.58
2018-09-03T05:59:42.107Z,35.80
2018-09-03T06:02:12.205Z,37.63
2018-09-03T06:04:43.343Z,37.42
2018-09-03T06:07:13.967Z,37.80
2018-09-03T06:09:42.823Z,35.70
2018-09-03T06:12:12.163Z,36.75
2018-09-03T06:14:41.290Z,39.98
2018-09-03T06:17:15.018Z,40.92
2018-09-03T06:19:44.369Z,43.00
2018-09-03T06:25:15.438Z,49.65
2018-09-03T06:27:46.606Z,57.13
2018-09-03T06:30:15.504Z,58.78
2018-09-03T06:32:44.349Z,60.67
2018-09-03T06:35:25.167Z,62.55
2018-09-03T06:37:55.100Z,60.23
2018-09-03T06:43:08.792Z,69.55
2018-09-03T06:48:28.627Z,58.70
2018-09-03T06:51:06.998Z,56.95
2018-09-03T06:53:44.048Z,51.45
2018-09-03T06:56:22.071Z,51.83
2018-09-03T06:58:50.994Z,54.48
2018-09-03T07:01:19.822Z,55.00
2018-09-03T07:03:49.479Z,52.73
2018-09-03T07:06:20.018Z,53.60
2018-09-03T07:08:49.837Z,57.13
2018-09-03T07:11:28.904Z,51.80
2018-09-03T07:14:08.435Z,37.33
2018-09-03T07:16:41.189Z,22.60
2018-09-03T07:19:09.967Z,23.67
2018-09-03T07:21:40.409Z,27.13
2018-09-03T07:24:12.580Z,28.67
2018-09-03T07:26:44.187Z,33.30
2018-09-03T07:29:16.794Z,32.88
2018-09-03T07:31:45.877Z,32.20
2018-09-03T07:34:21.098Z,35.17
2018-09-03T07:36:50.476Z,34.35
2018-09-03T07:39:39.097Z,35.83
2018-09-03T07:42:09.242Z,37.42
2018-09-03T07:45:06.666Z,44.33
2018-09-03T07:47:36.866Z,44.00
2018-09-03T07:50:12.020Z,47.05
2018-09-03T07:52:41.335Z,48.77
2018-09-03T07:55:14.061Z,43.75
2018-09-03T07:57:46.991Z,43.25
2018-09-03T08:00:18.614Z,42.03
2018-09-03T08:02:47.841Z,41.67
2018-09-03T08:05:21.263Z,41.77
2018-09-03T08:08:00.686Z,39.63
2018-09-03T08:13:25.727Z,33.25
2018-09-03T08:15:59.563Z,28.77
2018-09-03T08:18:29.214Z,28.63
2018-09-03T08:20:57.971Z,26.55
2018-09-03T08:23:30.863Z,23.17
2018-09-03T08:25:59.547Z,23.85
2018-09-03T08:28:28.419Z,25.35
2018-09-03T08:30:57.191Z,26.97
2018-09-03T08:33:29.838Z,30.37
2018-09-03T08:36:07.391Z,32.10
2018-09-03T08:38:38.890Z,28.60
2018-09-03T08:41:20.177Z,29.30
2018-09-03T08:43:52.386Z,32.93
2018-09-03T08:46:29.089Z,30.40
2018-09-03T08:48:59.176Z,32.67
2018-09-03T08:51:30.407Z,29.67
2018-09-03T08:54:02.498Z,37.25
2018-09-03T08:56:33.599Z,33.53
2018-09-03T09:01:38.352Z,26.53
2018-09-03T09:04:15.556Z,25.37
2018-09-03T09:06:49.331Z,26.57
2018-09-03T09:09:20.396Z,29.25
2018-09-03T09:11:59.335Z,26.12
2018-09-03T09:14:37.148Z,27.32
2018-09-03T09:17:11.578Z,25.60
2018-09-03T09:19:40.868Z,26.10
2018-09-03T09:22:11.972Z,24.55
2018-09-03T09:24:40.805Z,23.77
2018-09-03T09:27:09.722Z,23.62
2018-09-03T09:29:40.884Z,23.38
2018-09-03T09:32:22.125Z,23.53
2018-09-03T09:34:54.166Z,25.60
2018-09-03T09:37:22.905Z,23.80
2018-09-03T09:39:57.053Z,21.95
2018-09-03T09:42:36.205Z,21.97
2018-09-03T09:45:20.312Z,21.73
2018-09-03T09:47:49.379Z,21.05
2018-09-03T09:50:30.444Z,20.90
2018-09-03T09:53:22.999Z,22.42
2018-09-03T09:56:01.768Z,20.68
2018-09-03T09:58:35.945Z,19.73
2018-09-03T10:01:19.979Z,20.33
2018-09-03T10:03:54.341Z,19.42
2018-09-03T10:06:28.283Z,18.10
2018-09-03T10:09:02.831Z,18.50
2018-09-03T10:14:51.748Z,20.72
2018-09-03T10:21:02.568Z,19.90
2018-09-03T10:50:43.358Z,7.50
2018-09-03T10:53:29.267Z,7.00
2018-09-03T10:56:08.108Z,8.38
2018-09-03T10:58:49.236Z,6.53
2018-09-03T11:01:27.344Z,5.33
2018-09-03T11:04:01.886Z,7.58
2018-09-03T11:06:42.313Z,6.58
2018-09-03T11:09:18.332Z,5.78
2018-09-03T11:11:54.699Z,5.25
2018-09-03T11:14:31.004Z,7.17
2018-09-03T11:17:08.336Z,7.55
2018-09-03T11:19:49.103Z,5.53
2018-09-03T11:22:23.195Z,5.97
2018-09-03T11:24:57.191Z,5.05
2018-09-03T11:27:36.452Z,6.08
2018-09-03T11:30:13.315Z,6.03
2018-09-03T11:33:09.463Z,8.55
2018-09-03T11:36:16.935Z,8.30
2018-09-03T11:45:49.900Z,11.48
2018-09-03T11:48:24.162Z,12.23
2018-09-03T11:51:20.955Z,12.03
2018-09-03T11:53:58.474Z,13.00
2018-09-03T11:56:36.777Z,11.20
2018-09-03T11:59:16.631Z,12.00
2018-09-03T18:41:27.589Z,9.40
2018-09-03T18:53:04.084Z,6.30
2018-09-03T18:55:39.467Z,7.67
2018-09-03T18:58:13.109Z,6.60
2018-09-03T19:00:54.003Z,5.83
2018-09-03T19:03:32.230Z,6.67
2018-09-03T19:08:51.599Z,6.47
2018-09-03T19:11:28.358Z,7.37
2018-09-03T19:17:00.119Z,5.87
2018-09-03T19:19:43.968Z,6.40
2018-09-03T19:22:20.188Z,6.12
2018-09-03T19:25:00.760Z,6.07
2018-09-03T19:27:42.638Z,5.95
2018-09-03T19:30:21.452Z,5.10
2018-09-03T19:32:57.020Z,5.35
2018-09-03T19:35:33.394Z,5.47
2018-09-03T19:38:14.685Z,6.10
2018-09-03T19:40:49.407Z,6.87
2018-09-03T19:43:28.337Z,7.22
2018-09-03T19:46:05.612Z,8.60
2018-09-03T19:48:39.566Z,7.80
2018-09-03T19:51:13.380Z,8.58
2018-09-03T19:53:49.268Z,7.90
2018-09-03T19:56:28.161Z,7.50
2018-09-03T19:59:05.514Z,7.92
2018-09-03T20:01:41.018Z,7.47
2018-09-03T20:04:24.099Z,7.37
2018-09-03T20:06:58.054Z,6.67
2018-09-03T20:09:30.839Z,6.10
2018-09-03T20:12:08.015Z,6.85
2018-09-03T20:14:47.258Z,6.10
